Time;durP1;ratioP1;P1;durP2;ratioP2;P2;SDS_P1;SDS_P2;PMS_P1;PMS_P2;Temp;Humidity;BMP_temperature;BMP_pressure;BME280_temperature;BME280_humidity;BME280_pressure;Samples;Min_cycle;Max_cycle;Signal;HPM_P1;HPM_P2
2020/12/22 00:00:40;;;;;;;6.63;3.97;;;;;;;-1.64;73.43;101249.45;1722223;81;21175;-54
2020/12/22 00:03:07;;;;;;;10.53;5.00;;;;;;;-1.64;73.43;101251.67;1720936;81;21654;-55
2020/12/22 00:05:34;;;;;;;10.63;4.80;;;;;;;-1.62;73.39;101254.36;1724030;81;21264;-53
2020/12/22 00:08:01;;;;;;;9.80;5.00;;;;;;;-1.62;73.41;101263.59;1730484;81;21208;-53
2020/12/22 00:10:28;;;;;;;12.60;6.00;;;;;;;-1.62;73.27;101257.89;1707536;81;21197;-54
2020/12/22 00:12:56;;;;;;;13.17;7.83;;;;;;;-1.63;73.12;101259.17;1724044;81;21215;-55
2020/12/22 00:15:23;;;;;;;12.10;6.33;;;;;;;-1.66;73.13;101256.02;1720477;80;21637;-53
2020/12/22 00:17:52;;;;;;;11.57;7.07;;;;;;;-1.69;73.25;101254.61;1719230;81;21763;-54
2020/12/22 00:20:20;;;;;;;15.03;7.17;;;;;;;-1.68;73.19;101248.90;1719917;81;21224;-53
2020/12/22 00:22:49;;;;;;;16.53;9.20;;;;;;;-1.69;73.20;101252.39;1720371;81;21734;-53
2020/12/22 00:25:17;;;;;;;15.77;9.53;;;;;;;-1.68;73.26;101248.47;1723979;81;21863;-53
2020/12/22 00:27:46;;;;;;;23.57;10.50;;;;;;;-1.67;73.17;101250.27;1723000;81;21199;-54
2020/12/22 00:30:13;;;;;;;24.50;11.93;;;;;;;-1.68;73.19;101243.19;1718011;81;21660;-52
2020/12/22 00:32:40;;;;;;;29.70;14.23;;;;;;;-1.68;73.34;101236.59;1722329;81;21655;-54
2020/12/22 00:35:07;;;;;;;24.60;13.30;;;;;;;-1.68;73.18;101236.59;1748247;80;21170;-54
2020/12/22 00:37:34;;;;;;;25.50;11.13;;;;;;;-1.68;73.26;101232.63;1752668;80;21207;-53
2020/12/22 00:40:02;;;;;;;26.57;12.53;;;;;;;-1.67;73.32;101229.14;1753108;80;21521;-54
2020/12/22 00:42:31;;;;;;;21.60;11.30;;;;;;;-1.66;73.22;101228.29;1750017;80;21339;-53
2020/12/22 00:45:00;;;;;;;27.33;12.50;;;;;;;-1.65;73.30;101226.55;1751432;80;21183;-54
2020/12/22 00:47:27;;;;;;;19.37;11.63;;;;;;;-1.65;73.36;101231.40;1751864;80;21191;-53
2020/12/22 00:49:54;;;;;;;22.30;12.57;;;;;;;-1.63;73.54;101227.06;1751721;80;21187;-53
2020/12/22 00:52:22;;;;;;;23.07;11.53;;;;;;;-1.63;73.53;101224.84;1754216;80;21871;-54
2020/12/22 00:54:49;;;;;;;24.33;12.60;;;;;;;-1.63;73.55;101224.84;1748857;80;21735;-54
2020/12/22 00:57:17;;;;;;;22.77;11.77;;;;;;;-1.62;73.56;101221.35;1692821;82;21549;-54
2020/12/22 01:00:13;;;;;;;22.97;12.40;;;;;;;-1.57;73.60;101219.27;1870309;75;26867;-54
2020/12/22 01:02:40;;;;;;;28.73;13.90;;;;;;;-1.62;73.61;101224.88;1838390;76;21198;-54
2020/12/22 01:05:08;;;;;;;24.77;11.73;;;;;;;-1.62;73.49;101229.27;1787544;78;21386;-54
2020/12/22 01:07:35;;;;;;;19.27;9.73;;;;;;;-1.65;73.52;101224.80;1765263;78;21592;-54
2020/12/22 01:10:02;;;;;;;21.30;11.40;;;;;;;-1.65;73.64;101223.48;1776753;79;21616;-54
2020/12/22 01:12:30;;;;;;;20.10;11.13;;;;;;;-1.65;73.60;101219.52;1754020;80;21191;-54
2020/12/22 01:14:57;;;;;;;17.83;10.27;;;;;;;-1.64;73.56;101223.05;1748141;80;21178;-54
2020/12/22 01:17:24;;;;;;;17.90;9.63;;;;;;;-1.64;73.56;101220.41;1743767;80;21656;-55
2020/12/22 01:19:53;;;;;;;14.33;8.10;;;;;;;-1.65;73.59;101218.62;1774653;79;21258;-55
2020/12/22 01:22:20;;;;;;;15.07;7.70;;;;;;;-1.65;73.53;101222.16;1771067;78;21666;-54
2020/12/22 01:24:47;;;;;;;18.47;7.17;;;;;;;-1.66;73.51;101220.37;1773910;78;21175;-54
2020/12/22 01:27:14;;;;;;;7.50;4.57;;;;;;;-1.66;73.36;101228.72;1750225;80;21635;-54
2020/12/22 01:29:41;;;;;;;7.07;4.20;;;;;;;-1.66;73.22;101223.44;1747011;80;21585;-54
2020/12/22 01:32:09;;;;;;;4.07;3.10;;;;;;;-1.68;72.91;101226.03;1747948;80;21217;-54
2020/12/22 01:34:36;;;;;;;3.67;2.77;;;;;;;-1.70;72.96;101211.03;1766017;79;21203;-54
2020/12/22 01:37:11;;;;;;;2.20;1.97;;;;;;;-1.69;72.92;101219.39;1770166;79;21680;-55
2020/12/22 01:39:38;;;;;;;2.57;2.37;;;;;;;-1.70;72.81;101211.89;1770578;79;21198;-54
2020/12/22 01:42:11;;;;;;;2.90;2.60;;;;;;;-1.69;72.77;101202.23;1744813;79;22247;-54
2020/12/22 01:44:38;;;;;;;4.37;2.97;;;;;;;-1.68;72.83;101206.66;1774097;79;21250;-54
2020/12/22 01:47:08;;;;;;;3.70;2.40;;;;;;;-1.68;72.85;101194.35;1734716;80;21501;-54
2020/12/22 01:49:35;;;;;;;2.60;2.17;;;;;;;-1.65;72.84;101207.64;1732463;79;21119;-55
2020/12/22 01:52:02;;;;;;;3.57;2.20;;;;;;;-1.64;72.71;101210.75;1773782;79;21203;-54
2020/12/22 01:54:31;;;;;;;2.80;2.37;;;;;;;-1.63;72.75;101204.61;1752881;80;21905;-55
2020/12/22 01:56:58;;;;;;;3.57;2.03;;;;;;;-1.62;72.79;101199.80;1736960;81;21489;-54
2020/12/22 01:59:26;;;;;;;2.93;2.20;;;;;;;-1.60;72.77;101200.70;1748289;80;21782;-55
2020/12/22 02:01:54;;;;;;;4.20;2.57;;;;;;;-1.58;72.64;101201.64;1744725;80;21215;-55
2020/12/22 02:04:21;;;;;;;3.60;2.90;;;;;;;-1.57;72.58;101201.22;1776489;78;21202;-55
2020/12/22 02:06:49;;;;;;;3.03;2.13;;;;;;;-1.57;72.61;101201.22;1775002;79;22587;-55
2020/12/22 02:09:16;;;;;;;1.80;1.43;;;;;;;-1.56;72.46;101201.69;1776888;79;21606;-55
2020/12/22 02:11:44;;;;;;;3.27;1.63;;;;;;;-1.58;72.28;101188.44;1747294;80;21190;-55
2020/12/22 02:14:11;;;;;;;2.80;1.50;;;;;;;-1.58;72.27;101189.76;1751094;80;21209;-55
2020/12/22 02:16:38;;;;;;;3.70;1.80;;;;;;;-1.58;72.21;101183.16;1748938;80;21656;-55
2020/12/22 02:19:07;;;;;;;2.77;2.10;;;;;;;-1.58;72.21;101187.12;1744406;80;23401;-55
2020/12/22 02:21:35;;;;;;;2.50;1.33;;;;;;;-1.57;72.06;101182.73;1747955;80;21213;-55
2020/12/22 02:24:02;;;;;;;2.57;2.07;;;;;;;-1.56;72.09;101185.84;1748717;80;21518;-56
2020/12/22 02:26:31;;;;;;;2.47;1.50;;;;;;;-1.55;72.19;101181.03;1748711;80;21644;-55
2020/12/22 02:28:58;;;;;;;3.17;2.10;;;;;;;-1.55;72.03;101181.03;1751555;80;21213;-55
2020/12/22 02:31:26;;;;;;;2.63;1.33;;;;;;;-1.54;72.09;101183.71;1745708;80;22031;-55
2020/12/22 02:33:53;;;;;;;2.40;1.67;;;;;;;-1.53;72.14;101182.83;1749011;80;21202;-55
2020/12/22 02:36:20;;;;;;;3.17;1.67;;;;;;;-1.54;72.08;101185.03;1746926;80;21120;-55
2020/12/22 02:38:48;;;;;;;3.13;2.57;;;;;;;-1.53;72.14;101185.89;1749076;80;21231;-55
2020/12/22 02:41:15;;;;;;;2.93;2.10;;;;;;;-1.52;72.18;101183.72;1751996;80;21217;-55
2020/12/22 02:43:43;;;;;;;3.17;2.00;;;;;;;-1.51;72.05;101186.83;1747957;80;21401;-55
2020/12/22 02:46:12;;;;;;;3.60;2.23;;;;;;;-1.52;72.18;101183.72;1747267;80;21230;-55
2020/12/22 02:48:39;;;;;;;4.60;2.67;;;;;;;-1.51;72.22;101190.78;1730884;80;21198;-55
2020/12/22 02:51:06;;;;;;;4.70;2.40;;;;;;;-1.52;72.30;101187.25;1752966;79;21178;-57
2020/12/22 02:53:33;;;;;;;3.40;2.67;;;;;;;-1.48;72.28;101188.66;1749847;80;21174;-57
2020/12/22 02:56:01;;;;;;;2.23;1.47;;;;;;;-1.48;72.18;101186.02;1752626;80;21234;-57
2020/12/22 02:58:28;;;;;;;4.97;1.73;;;;;;;-1.48;72.13;101184.27;1752334;80;21705;-56
2020/12/22 03:00:55;;;;;;;3.33;2.10;;;;;;;-1.48;72.09;101184.27;1727090;81;21775;-57
2020/12/22 03:03:23;;;;;;;3.87;2.23;;;;;;;-1.48;72.08;101186.91;1752202;80;21196;-57
2020/12/22 03:05:50;;;;;;;3.43;2.57;;;;;;;-1.48;71.96;101185.59;1732413;80;21569;-57
2020/12/22 03:08:17;;;;;;;2.70;1.93;;;;;;;-1.48;71.99;101186.91;1754119;80;21242;-58
2020/12/22 03:10:45;;;;;;;3.23;2.00;;;;;;;-1.49;71.87;101175.87;1717282;81;21536;-56
2020/12/22 03:13:12;;;;;;;3.17;2.57;;;;;;;-1.52;71.85;101178.44;1749387;80;21190;-56
2020/12/22 03:15:39;;;;;;;4.70;3.23;;;;;;;-1.56;71.97;101176.59;1734303;80;21231;-57
2020/12/22 03:18:07;;;;;;;5.73;3.10;;;;;;;-1.57;72.01;101177.03;1730535;80;21655;-58
2020/12/22 03:20:34;;;;;;;4.00;2.53;;;;;;;-1.57;72.08;101166.89;1748253;80;23166;-58
2020/12/22 03:23:01;;;;;;;3.80;2.57;;;;;;;-1.56;72.15;101164.29;1728322;80;21197;-57
2020/12/22 03:25:28;;;;;;;3.47;2.50;;;;;;;-1.55;72.20;101159.91;1731398;80;21426;-56
2020/12/22 03:27:56;;;;;;;3.53;2.57;;;;;;;-1.53;72.09;101163.45;1731972;80;21214;-57
2020/12/22 03:30:23;;;;;;;3.67;2.67;;;;;;;-1.54;72.07;101166.55;1733873;80;21651;-58
2020/12/22 03:32:50;;;;;;;4.17;2.93;;;;;;;-1.55;72.10;101169.14;1733104;80;22528;-57
2020/12/22 03:35:17;;;;;;;3.13;2.77;;;;;;;-1.56;72.08;101163.39;1732254;81;21246;-57
2020/12/22 03:37:45;;;;;;;3.23;2.27;;;;;;;-1.55;72.17;101167.40;1739174;80;21535;-56
2020/12/22 03:40:12;;;;;;;3.07;2.10;;;;;;;-1.55;72.21;101166.08;1703357;82;21196;-58
2020/12/22 03:42:40;;;;;;;4.27;2.30;;;;;;;-1.56;72.17;101168.67;1702598;82;21174;-56
2020/12/22 03:45:09;;;;;;;4.07;2.53;;;;;;;-1.57;72.20;101173.06;1747920;80;21446;-58
2020/12/22 03:47:36;;;;;;;4.60;2.70;;;;;;;-1.57;72.33;101174.81;1719725;81;21203;-57
2020/12/22 03:50:05;;;;;;;3.73;2.20;;;;;;;-1.57;72.14;101173.06;1718458;81;21505;-57
2020/12/22 03:52:32;;;;;;;3.20;1.70;;;;;;;-1.55;72.30;101173.11;1735068;81;21107;-57
2020/12/22 03:54:59;;;;;;;4.17;2.37;;;;;;;-1.55;72.29;101171.36;1731106;80;20964;-58
2020/12/22 03:57:27;;;;;;;2.90;1.90;;;;;;;-1.53;72.37;101170.05;1735583;80;21902;-55
2020/12/22 03:59:54;;;;;;;2.87;2.57;;;;;;;-1.52;72.39;101161.27;1743236;79;21223;-58
2020/12/22 04:02:21;;;;;;;2.67;2.00;;;;;;;-1.52;72.42;101166.13;1755814;79;21185;-55
2020/12/22 04:04:49;;;;;;;2.87;2.57;;;;;;;-1.49;72.46;101159.14;1776119;79;21205;-58
2020/12/22 04:07:16;;;;;;;3.50;1.97;;;;;;;-1.50;72.40;101162.63;1741474;80;21210;-57
2020/12/22 04:09:43;;;;;;;2.33;1.70;;;;;;;-1.50;72.33;101156.92;1782035;78;21466;-57
2020/12/22 04:12:10;;;;;;;2.70;1.63;;;;;;;-1.51;72.41;101165.70;1777510;78;21122;-58
2020/12/22 04:14:40;;;;;;;2.23;1.60;;;;;;;-1.52;72.39;101159.95;1754132;79;21166;-57
2020/12/22 04:17:07;;;;;;;3.20;1.50;;;;;;;-1.52;72.51;101159.52;1755291;79;21103;-57
2020/12/22 04:19:34;;;;;;;2.23;1.53;;;;;;;-1.52;72.48;101156.88;1752169;79;21141;-58
2020/12/22 04:22:02;;;;;;;3.00;2.00;;;;;;;-1.50;72.40;101163.95;1756560;79;21437;-56
2020/12/22 04:24:29;;;;;;;5.97;1.43;;;;;;;-1.50;72.44;101166.16;1757433;79;21576;-56
2020/12/22 04:26:56;;;;;;;1.83;1.40;;;;;;;-1.50;72.54;101167.48;1756556;79;21716;-57
2020/12/22 04:29:23;;;;;;;3.30;2.00;;;;;;;-1.49;72.58;101168.38;1756513;79;21798;-56
2020/12/22 04:31:51;;;;;;;2.23;1.60;;;;;;;-1.49;72.56;101169.27;1758464;79;21104;-55
2020/12/22 04:34:19;;;;;;;1.90;1.70;;;;;;;-1.49;72.58;101166.63;1756500;79;21679;-58
2020/12/22 04:36:47;;;;;;;7.03;3.30;;;;;;;-1.47;72.54;101166.25;1758826;79;21101;-57
2020/12/22 04:39:15;;;;;;;3.57;2.17;;;;;;;-1.48;72.47;101160.92;1756430;79;21153;-58
2020/12/22 04:41:47;;;;;;;3.63;2.03;;;;;;;-1.49;72.52;101159.14;1760298;79;21107;-57
2020/12/22 04:44:18;;;;;;;3.60;2.37;;;;;;;-1.48;72.50;101158.28;1774410;79;21501;-59
2020/12/22 04:46:51;;;;;;;4.77;2.10;;;;;;;-1.48;72.35;101155.64;1742847;80;21376;-56
2020/12/22 04:49:24;;;;;;;3.23;2.00;;;;;;;-1.49;72.37;101153.86;1745705;80;21502;-56
2020/12/22 04:51:53;;;;;;;2.40;1.80;;;;;;;-1.48;72.43;101155.64;1752918;80;21955;-56
2020/12/22 04:54:22;;;;;;;4.10;1.90;;;;;;;-1.47;72.41;101149.51;1753616;80;21140;-56
2020/12/22 04:56:50;;;;;;;4.40;1.77;;;;;;;-1.47;72.40;101156.11;1753970;79;20992;-58
2020/12/22 04:59:17;;;;;;;2.40;2.03;;;;;;;-1.47;72.37;101150.83;1725826;80;21560;-56
2020/12/22 05:01:45;;;;;;;2.33;2.00;;;;;;;-1.48;72.37;101145.08;1787724;78;21114;-57
2020/12/22 05:04:13;;;;;;;3.10;2.10;;;;;;;-1.48;72.32;101154.33;1783766;78;22071;-57
2020/12/22 05:06:40;;;;;;;1.60;1.40;;;;;;;-1.48;72.24;101152.58;1751528;80;21123;-58
2020/12/22 05:09:07;;;;;;;2.83;2.10;;;;;;;-1.49;72.21;101153.43;1746955;80;21111;-56
2020/12/22 05:11:35;;;;;;;2.57;1.60;;;;;;;-1.50;72.06;101150.75;1751288;80;21557;-57
2020/12/22 05:14:04;;;;;;;2.33;1.83;;;;;;;-1.48;71.98;101153.00;1784981;78;21143;-57
2020/12/22 05:16:36;;;;;;;2.10;1.83;;;;;;;-1.52;71.94;101151.60;1753794;79;21192;-56
2020/12/22 05:19:04;;;;;;;2.20;1.73;;;;;;;-1.53;71.95;101156.84;1782083;78;21142;-55
2020/12/22 05:21:35;;;;;;;1.90;1.30;;;;;;;-1.56;71.78;101152.83;1757173;80;21104;-57
2020/12/22 05:24:04;;;;;;;2.27;1.57;;;;;;;-1.61;71.76;101148.75;1764507;79;21210;-56
2020/12/22 05:26:33;;;;;;;1.80;1.53;;;;;;;-1.61;71.75;101149.17;1782173;78;21549;-57
2020/12/22 05:29:14;;;;;;;3.43;2.03;;;;;;;-1.63;71.85;101143.89;1753485;79;21107;-58
2020/12/22 05:31:44;;;;;;;2.33;1.57;;;;;;;-1.62;71.70;101149.64;1780764;79;21439;-56
2020/12/22 05:34:12;;;;;;;3.93;1.67;;;;;;;-1.62;71.74;101147.00;1775939;80;21091;-58
2020/12/22 05:36:40;;;;;;;2.10;1.33;;;;;;;-1.62;71.70;101147.00;1772847;80;21570;-57
2020/12/22 05:39:12;;;;;;;2.17;1.60;;;;;;;-1.63;71.66;101152.23;1758804;80;21586;-56
2020/12/22 05:41:39;;;;;;;2.50;1.87;;;;;;;-1.66;71.76;101152.16;1756647;80;21134;-57
2020/12/22 05:44:07;;;;;;;2.03;1.50;;;;;;;-1.66;71.79;101145.13;1783335;79;21114;-57
2020/12/22 05:46:36;;;;;;;2.63;1.90;;;;;;;-1.66;71.80;101145.13;1766237;79;21118;-56
2020/12/22 05:49:08;;;;;;;2.63;1.60;;;;;;;-1.65;71.86;101147.34;1759428;79;21660;-57
2020/12/22 05:51:37;;;;;;;3.02;1.77;;;;;;;-1.66;71.99;101149.09;1782419;79;21890;-55
2020/12/22 05:54:06;;;;;;;3.40;1.80;;;;;;;-1.66;72.10;101140.27;1782555;78;21144;-57
2020/12/22 05:56:34;;;;;;;2.77;1.60;;;;;;;-1.65;72.10;101143.38;1781215;78;21099;-58
2020/12/22 05:59:02;;;;;;;2.07;1.80;;;;;;;-1.66;72.20;101147.77;1783093;79;21125;-56
2020/12/22 06:01:33;;;;;;;2.20;1.77;;;;;;;-1.66;72.30;101146.45;1753283;79;21214;-58
2020/12/22 06:04:03;;;;;;;4.33;2.33;;;;;;;-1.65;72.31;101149.98;1752333;80;21174;-57
2020/12/22 06:06:32;;;;;;;4.23;2.33;;;;;;;-1.66;72.38;101144.23;1749914;80;21608;-57
2020/12/22 06:08:59;;;;;;;2.73;2.30;;;;;;;-1.66;72.47;101134.56;1775291;78;21123;-57
2020/12/22 06:11:28;;;;;;;4.13;2.40;;;;;;;-1.66;72.51;101136.31;1778849;79;21075;-55
2020/12/22 06:13:55;;;;;;;3.53;2.70;;;;;;;-1.65;72.57;101135.03;1778518;78;21776;-56
2020/12/22 06:16:22;;;;;;;3.83;2.10;;;;;;;-1.62;72.64;101138.19;1780162;78;21572;-58
2020/12/22 06:18:51;;;;;;;2.63;2.43;;;;;;;-1.62;72.57;101135.11;1751901;80;21166;-58
2020/12/22 06:21:19;;;;;;;6.03;2.37;;;;;;;-1.62;72.68;101131.16;1747760;80;21099;-57
2020/12/22 06:23:47;;;;;;;1.80;1.20;;;;;;;-1.60;72.75;101131.16;1773095;79;21968;-58
2020/12/22 06:26:19;;;;;;;2.20;2.00;;;;;;;-1.58;72.78;101129.45;1738203;81;21376;-59
2020/12/22 06:28:46;;;;;;;2.20;1.97;;;;;;;-1.58;72.78;101124.17;1748085;78;21144;-56
2020/12/22 06:31:21;;;;;;;2.37;2.17;;;;;;;-1.57;72.89;101120.25;1771705;79;21127;-57
2020/12/22 06:33:48;;;;;;;;;;;;;;;-1.57;72.86;101118.93;1754230;80;21458;-56
2020/12/22 06:36:19;;;;;;;2.40;1.67;;;;;;;-1.57;72.91;101114.08;1749405;79;20295;-56
2020/12/22 06:38:56;;;;;;;1.97;1.43;;;;;;;-1.55;73.00;101123.83;1751092;80;21216;-58
2020/12/22 06:41:35;;;;;;;3.70;2.17;;;;;;;-1.54;72.96;101115.05;1747211;79;21126;-58
2020/12/22 06:44:16;;;;;;;3.03;2.03;;;;;;;-1.53;73.01;101116.80;1751207;79;21151;-58
2020/12/22 06:46:45;;;;;;;3.23;2.40;;;;;;;-1.50;73.05;101112.03;1748538;80;21114;-58
2020/12/22 06:49:13;;;;;;;2.67;1.60;;;;;;;-1.50;73.05;101105.42;1748840;80;21460;-56
2020/12/22 06:51:42;;;;;;;4.80;2.27;;;;;;;-1.49;73.17;101115.14;1750344;80;22058;-55
2020/12/22 06:54:20;;;;;;;2.97;2.43;;;;;;;-1.47;73.21;101105.51;1744936;80;22383;-56
2020/12/22 06:56:49;;;;;;;4.03;2.37;;;;;;;-1.45;73.22;101105.13;1751303;79;21107;-58
2020/12/22 06:59:44;;;;;;;3.23;2.10;;;;;;;-1.40;73.29;101105.20;1748206;80;21670;-58
2020/12/22 07:02:29;;;;;;;3.03;2.03;;;;;;;-1.39;73.23;101106.56;1703330;81;22264;-58
2020/12/22 07:04:58;;;;;;;2.37;1.93;;;;;;;-1.35;73.33;101108.81;1719423;81;21272;-58
2020/12/22 07:07:25;;;;;;;3.70;2.87;;;;;;;-1.33;73.43;101101.40;1717755;81;21555;-58
2020/12/22 07:10:02;;;;;;;4.63;3.10;;;;;;;-1.31;73.48;101101.01;1715846;81;21131;-56
2020/12/22 07:12:30;;;;;;;3.33;2.20;;;;;;;-1.28;73.52;101093.59;1722087;81;21170;-57
2020/12/22 07:14:57;;;;;;;7.90;3.30;;;;;;;-1.25;73.64;101094.52;1698642;82;21115;-56
2020/12/22 07:17:24;;;;;;;4.13;3.00;;;;;;;-1.23;73.62;101089.28;1720572;81;21676;-58
2020/12/22 07:19:54;;;;;;;5.17;3.07;;;;;;;-1.19;73.54;101087.14;1716660;81;21134;-55
2020/12/22 07:22:23;;;;;;;3.87;2.60;;;;;;;-1.16;73.54;101085.47;1717157;81;21504;-55
2020/12/22 07:24:50;;;;;;;7.07;2.67;;;;;;;-1.15;73.48;101081.07;1719698;81;21123;-57
2020/12/22 07:27:18;;;;;;;4.23;2.47;;;;;;;-1.12;73.45;101080.25;1720455;81;21147;-58
2020/12/22 07:29:45;;;;;;;3.60;2.33;;;;;;;-1.13;73.50;101078.04;1719439;81;21992;-57
2020/12/22 07:32:12;;;;;;;3.40;2.10;;;;;;;-1.10;73.50;101077.19;1718473;81;21150;-57
2020/12/22 07:34:40;;;;;;;3.00;1.93;;;;;;;-1.08;73.43;101072.40;1721230;81;21016;-57
2020/12/22 07:37:10;;;;;;;3.67;2.47;;;;;;;-1.07;73.48;101068.01;1720232;81;21131;-56
2020/12/22 07:39:38;;;;;;;3.90;2.20;;;;;;;-1.06;73.54;101065.83;1716455;81;21882;-56
2020/12/22 07:42:15;;;;;;;3.83;2.37;;;;;;;-1.04;73.56;101062.80;1718744;81;21703;-56
2020/12/22 07:44:43;;;;;;;5.23;2.67;;;;;;;-1.02;73.55;101069.01;1718914;81;22119;-55
2020/12/22 07:47:11;;;;;;;4.60;2.80;;;;;;;-1.03;73.66;101060.19;1716483;81;21133;-57
2020/12/22 07:49:40;;;;;;;2.73;1.90;;;;;;;-1.01;73.66;101055.80;1721193;81;21170;-59
2020/12/22 07:52:16;;;;;;;3.27;2.13;;;;;;;-0.99;73.54;101062.44;1723571;81;21146;-55
2020/12/22 07:54:58;;;;;;;4.00;2.20;;;;;;;-1.00;73.62;101058.02;1716392;81;21193;-57
2020/12/22 07:57:26;;;;;;;4.03;2.53;;;;;;;-0.99;73.82;101054.51;1718684;81;21170;-58
2020/12/22 08:00:06;;;;;;;2.40;1.80;;;;;;;-0.97;73.58;101066.91;1720969;81;21641;-57
2020/12/22 08:02:34;;;;;;;2.00;1.40;;;;;;;-0.93;73.58;101067.83;1745570;80;21616;-57
2020/12/22 08:05:13;;;;;;;2.63;1.80;;;;;;;-0.88;73.58;101055.61;1755336;80;21102;-56
2020/12/22 08:07:42;;;;;;;4.17;2.17;;;;;;;-0.84;73.58;101059.64;1749481;80;21424;-55
2020/12/22 08:10:11;;;;;;;1.77;1.50;;;;;;;-0.83;73.58;101060.11;1750797;80;21147;-56
2020/12/22 08:12:39;;;;;;;4.43;2.20;;;;;;;-0.82;73.73;101060.57;1744272;80;22000;-57
2020/12/22 08:15:07;;;;;;;7.33;2.60;;;;;;;-0.79;73.68;101054.03;1749716;80;21720;-58
2020/12/22 08:17:37;;;;;;;10.80;4.47;;;;;;;-0.78;73.67;101058.89;1748719;80;21108;-57
2020/12/22 08:20:04;;;;;;;8.17;2.80;;;;;;;-0.77;73.53;101056.71;1753902;80;21379;-58
2020/12/22 08:22:32;;;;;;;4.23;2.83;;;;;;;-0.74;73.56;101058.50;1752338;80;21139;-58
2020/12/22 08:25:00;;;;;;;4.27;2.70;;;;;;;-0.73;73.57;101053.23;1746251;80;21680;-57
2020/12/22 08:27:29;;;;;;;3.10;2.50;;;;;;;-0.71;73.48;101045.34;1746630;80;21567;-58
2020/12/22 08:29:57;;;;;;;4.10;2.90;;;;;;;-0.70;73.59;101040.09;1748173;80;21526;-58
2020/12/22 08:32:26;;;;;;;3.77;2.63;;;;;;;-0.69;73.65;101039.22;1747640;80;21284;-55
2020/12/22 08:34:54;;;;;;;3.23;1.67;;;;;;;-0.67;73.67;101032.19;1748940;80;21113;-56
2020/12/22 08:37:25;;;;;;;5.20;2.83;;;;;;;-0.65;73.56;101026.50;1747088;80;21186;-58
2020/12/22 08:39:53;;;;;;;4.87;3.33;;;;;;;-0.65;73.63;101026.93;1748776;80;21099;-56
2020/12/22 08:42:21;;;;;;;5.47;3.40;;;;;;;-0.63;73.70;101026.10;1749485;80;21116;-55
2020/12/22 08:44:51;;;;;;;4.17;3.57;;;;;;;-0.59;73.58;101021.30;1746172;80;21338;-58
2020/12/22 08:47:19;;;;;;;7.70;2.67;;;;;;;-0.58;73.49;101029.70;1744759;80;21693;-59
2020/12/22 08:49:46;;;;;;;8.63;4.57;;;;;;;-0.56;73.59;101020.47;1748305;80;21153;-56
2020/12/22 08:52:18;;;;;;;4.87;3.80;;;;;;;-0.55;73.60;101020.94;1751085;80;21394;-57
2020/12/22 08:54:47;;;;;;;4.10;2.43;;;;;;;-0.55;73.72;101021.83;1754552;80;21163;-58
2020/12/22 08:57:17;;;;;;;6.50;3.43;;;;;;;-0.54;73.70;101015.68;1741868;80;21392;-57
2020/12/22 08:59:47;;;;;;;4.63;2.53;;;;;;;-0.53;73.67;101013.92;1745850;80;21182;-56
2020/12/22 09:02:30;;;;;;;3.60;1.90;;;;;;;-0.56;73.57;101005.93;1742643;80;21201;-57
2020/12/22 09:04:58;;;;;;;3.97;2.00;;;;;;;-0.59;73.59;101009.41;1750251;80;21207;-55
2020/12/22 09:07:25;;;;;;;4.27;2.67;;;;;;;-0.57;73.78;101013.41;1750943;80;21103;-55
2020/12/22 09:09:53;;;;;;;4.70;2.97;;;;;;;-0.57;73.91;101003.72;1751028;80;22056;-58
2020/12/22 09:12:20;;;;;;;4.97;2.77;;;;;;;-0.55;73.96;101003.31;1747152;80;21468;-58
2020/12/22 09:14:48;;;;;;;6.43;3.67;;;;;;;-0.52;74.03;100997.20;1748949;80;21106;-57
2020/12/22 09:17:32;;;;;;;4.40;2.90;;;;;;;-0.49;74.06;100998.55;1747332;80;21115;-56
2020/12/22 09:20:00;;;;;;;6.80;3.05;;;;;;;-0.47;73.96;100993.75;1747250;80;21107;-57
2020/12/22 09:22:29;;;;;;;5.77;3.37;;;;;;;-0.43;73.86;100985.44;1749528;80;21369;-57
2020/12/22 09:25:00;;;;;;;4.43;2.77;;;;;;;-0.42;73.83;100980.58;1754623;79;21131;-56
2020/12/22 09:27:35;;;;;;;7.80;3.50;;;;;;;-0.40;73.78;100983.72;1749350;80;21468;-56
2020/12/22 09:30:06;;;;;;;3.50;2.70;;;;;;;-0.39;73.65;100984.17;1743877;80;21147;-57
2020/12/22 09:32:35;;;;;;;4.30;2.73;;;;;;;-0.40;73.56;100982.82;1748997;80;21115;-55
2020/12/22 09:35:03;;;;;;;7.10;3.60;;;;;;;-0.42;73.52;100970.89;1747058;80;21205;-56
2020/12/22 09:37:30;;;;;;;6.10;3.77;;;;;;;-0.42;73.59;100968.24;1751820;80;21465;-56
2020/12/22 09:39:58;;;;;;;6.43;3.17;;;;;;;-0.41;73.69;100967.81;1746392;80;21158;-56
2020/12/22 09:42:27;;;;;;;6.37;3.63;;;;;;;-0.38;73.76;100963.91;1750149;80;21581;-56
2020/12/22 09:44:54;;;;;;;6.20;2.90;;;;;;;-0.37;73.79;100965.69;1750804;80;21150;-57
2020/12/22 09:47:21;;;;;;;7.87;4.17;;;;;;;-0.35;73.76;100961.75;1749553;80;21671;-57
2020/12/22 09:49:50;;;;;;;5.37;3.50;;;;;;;-0.32;73.89;100964.41;1750478;80;21182;-56
2020/12/22 09:52:17;;;;;;;8.00;4.03;;;;;;;-0.31;73.94;100953.86;1747915;80;21119;-56
2020/12/22 09:54:45;;;;;;;7.17;3.93;;;;;;;-0.29;73.84;100952.56;1747549;80;21163;-57
2020/12/22 09:57:13;;;;;;;8.70;4.30;;;;;;;-0.28;73.85;100948.63;1746359;80;21111;-57
2020/12/22 09:59:42;;;;;;;6.27;4.00;;;;;;;-0.28;73.80;100952.59;1753514;80;21136;-57
2020/12/22 10:02:09;;;;;;;6.03;3.77;;;;;;;-0.27;73.77;100943.80;1731217;80;21243;-56
2020/12/22 10:04:39;;;;;;;6.67;3.17;;;;;;;-0.26;73.79;100932.78;1757199;80;21501;-57
2020/12/22 10:07:06;;;;;;;7.10;4.20;;;;;;;-0.26;73.80;100934.10;1744321;80;21193;-57
2020/12/22 10:09:33;;;;;;;7.07;4.00;;;;;;;-0.26;73.89;100928.37;1750446;80;21489;-56
2020/12/22 10:12:00;;;;;;;7.87;4.23;;;;;;;-0.25;73.92;100931.45;1744161;80;21723;-57
2020/12/22 10:14:28;;;;;;;7.47;4.20;;;;;;;-0.25;73.88;100923.94;1737368;80;21170;-57
2020/12/22 10:16:55;;;;;;;8.40;4.57;;;;;;;-0.26;73.94;100917.80;1743890;80;21123;-56
2020/12/22 10:19:22;;;;;;;6.23;3.77;;;;;;;-0.26;73.99;100908.97;1741764;80;21102;-56
2020/12/22 10:21:52;;;;;;;7.73;4.87;;;;;;;-0.26;74.09;100915.15;1745910;80;21119;-56
2020/12/22 10:24:21;;;;;;;5.73;4.43;;;;;;;-0.25;74.11;100906.31;1744247;80;21395;-57
2020/12/22 10:26:49;;;;;;;7.93;4.10;;;;;;;-0.25;74.17;100912.92;1751134;80;21139;-56
2020/12/22 10:29:16;;;;;;;9.13;4.63;;;;;;;-0.27;74.11;100901.46;1742464;80;21154;-57
2020/12/22 10:31:43;;;;;;;7.87;4.90;;;;;;;-0.28;74.04;100899.67;1750687;80;21136;-57
2020/12/22 10:34:10;;;;;;;6.37;3.93;;;;;;;-0.30;74.10;100893.47;1753076;80;21138;-56
2020/12/22 10:36:37;;;;;;;7.57;4.60;;;;;;;-0.30;74.21;100889.94;1751510;80;21391;-57
2020/12/22 10:39:05;;;;;;;7.87;4.90;;;;;;;-0.31;74.29;100887.72;1740669;80;21570;-57
2020/12/22 10:41:34;;;;;;;6.47;4.43;;;;;;;-0.29;74.33;100889.06;1749041;80;21118;-56
2020/12/22 10:44:01;;;;;;;11.73;5.80;;;;;;;-0.29;74.39;100880.70;1740012;80;21521;-57
2020/12/22 10:46:28;;;;;;;9.03;5.47;;;;;;;-0.27;74.45;100882.05;1746088;80;21119;-57
2020/12/22 10:48:55;;;;;;;10.70;5.63;;;;;;;-0.23;74.59;100885.17;1751637;80;21605;-56
2020/12/22 10:52:17;;;;;;;10.17;5.37;;;;;;;-0.17;74.50;100878.19;1879382;75;26779;-56
2020/12/22 10:54:46;;;;;;;10.80;6.00;;;;;;;-0.19;74.56;100876.42;1836905;77;21071;-56
2020/12/22 10:57:14;;;;;;;10.60;6.37;;;;;;;-0.17;74.58;100873.37;1843603;75;22352;-56
2020/12/22 10:59:41;;;;;;;11.47;6.47;;;;;;;-0.16;74.52;100866.74;1853727;77;21000;-56
2020/12/22 11:02:09;;;;;;;9.57;5.77;;;;;;;-0.15;74.39;100864.55;1854621;77;21442;-57
2020/12/22 11:04:36;;;;;;;9.73;5.70;;;;;;;-0.14;74.40;100861.47;1774266;78;20974;-56
2020/12/22 11:07:09;;;;;;;9.37;5.50;;;;;;;-0.15;74.40;100862.34;1778765;78;20965;-57
2020/12/22 11:09:32;;;;;;;9.90;5.53;;;;;;;-0.15;74.45;100863.23;1772001;79;21370;-57
2020/12/22 11:12:00;;;;;;;10.70;6.23;;;;;;;-0.14;74.46;100864.13;1764300;79;21009;-57
2020/12/22 11:14:27;;;;;;;10.53;5.90;;;;;;;-0.15;74.39;100864.55;1772255;78;20993;-57
2020/12/22 11:16:55;;;;;;;10.33;6.03;;;;;;;-0.15;74.25;100862.34;1776223;79;21132;-57
2020/12/22 11:19:22;;;;;;;13.10;8.03;;;;;;;-0.18;74.35;100857.03;1786003;79;21124;-56
2020/12/22 11:21:50;;;;;;;9.67;5.53;;;;;;;-0.18;74.39;100862.33;1776235;80;20993;-57
2020/12/22 11:24:17;;;;;;;10.97;6.33;;;;;;;-0.20;74.44;100851.72;1809394;77;21000;-57
2020/12/22 11:26:44;;;;;;;11.73;5.93;;;;;;;-0.19;74.41;100848.63;1781487;78;21476;-57
2020/12/22 11:29:11;;;;;;;11.63;6.43;;;;;;;-0.19;74.45;100837.62;1782529;80;21111;-56
2020/12/22 11:31:38;;;;;;;12.93;6.53;;;;;;;-0.17;74.44;100837.64;1810825;77;21159;-57